sensor_id;sensor_type;location;lat;lon;timestamp;P1;durP1;ratioP1;P2;durP2;ratioP2
13649;SDS011;6898;50.918;4.688;2022-08-21T00:00:13;6.85;;;4.13;;
13649;SDS011;6898;50.918;4.688;2022-08-21T00:02:44;8.33;;;4.37;;
13649;SDS011;6898;50.918;4.688;2022-08-21T00:05:13;8.45;;;4.20;;
13649;SDS011;6898;50.918;4.688;2022-08-21T00:07:41;9.45;;;4.40;;
13649;SDS011;6898;50.918;4.688;2022-08-21T00:10:10;9.10;;;4.35;;
13649;SDS011;6898;50.918;4.688;2022-08-21T00:12:40;9.13;;;4.70;;
13649;SDS011;6898;50.918;4.688;2022-08-21T00:15:10;10.00;;;4.50;;
13649;SDS011;6898;50.918;4.688;2022-08-21T00:17:38;9.07;;;4.57;;
13649;SDS011;6898;50.918;4.688;2022-08-21T00:20:08;6.93;;;4.22;;
13649;SDS011;6898;50.918;4.688;2022-08-21T00:22:37;9.43;;;4.50;;
13649;SDS011;6898;50.918;4.688;2022-08-21T00:25:06;6.53;;;4.22;;
13649;SDS011;6898;50.918;4.688;2022-08-21T00:27:35;8.13;;;4.38;;
13649;SDS011;6898;50.918;4.688;2022-08-21T00:30:06;7.35;;;4.15;;
13649;SDS011;6898;50.918;4.688;2022-08-21T00:32:35;9.13;;;4.50;;
13649;SDS011;6898;50.918;4.688;2022-08-21T00:35:04;8.13;;;4.40;;
13649;SDS011;6898;50.918;4.688;2022-08-21T00:37:33;8.37;;;4.20;;
13649;SDS011;6898;50.918;4.688;2022-08-21T00:40:02;8.50;;;4.40;;
13649;SDS011;6898;50.918;4.688;2022-08-21T00:42:30;7.45;;;4.10;;
13649;SDS011;6898;50.918;4.688;2022-08-21T00:44:59;8.88;;;4.25;;
13649;SDS011;6898;50.918;4.688;2022-08-21T00:47:30;7.85;;;4.13;;
13649;SDS011;6898;50.918;4.688;2022-08-21T00:49:58;7.40;;;4.25;;
13649;SDS011;6898;50.918;4.688;2022-08-21T00:52:28;6.95;;;3.95;;
13649;SDS011;6898;50.918;4.688;2022-08-21T00:54:57;7.90;;;4.30;;
13649;SDS011;6898;50.918;4.688;2022-08-21T00:57:27;6.75;;;3.90;;
13649;SDS011;6898;50.918;4.688;2022-08-21T00:59:58;6.32;;;3.92;;
13649;SDS011;6898;50.918;4.688;2022-08-21T01:02:28;7.35;;;4.50;;
13649;SDS011;6898;50.918;4.688;2022-08-21T01:04:57;8.27;;;4.10;;
13649;SDS011;6898;50.918;4.688;2022-08-21T01:07:26;8.83;;;4.10;;
13649;SDS011;6898;50.918;4.688;2022-08-21T01:09:57;9.70;;;4.40;;
13649;SDS011;6898;50.918;4.688;2022-08-21T01:12:26;9.63;;;4.15;;
13649;SDS011;6898;50.918;4.688;2022-08-21T01:14:55;6.43;;;4.30;;
13649;SDS011;6898;50.918;4.688;2022-08-21T01:17:24;8.50;;;4.45;;
13649;SDS011;6898;50.918;4.688;2022-08-21T01:19:53;7.07;;;3.90;;
13649;SDS011;6898;50.918;4.688;2022-08-21T01:22:22;7.75;;;4.38;;
13649;SDS011;6898;50.918;4.688;2022-08-21T01:24:51;8.48;;;4.25;;
13649;SDS011;6898;50.918;4.688;2022-08-21T01:27:19;7.30;;;4.10;;
13649;SDS011;6898;50.918;4.688;2022-08-21T01:29:50;7.53;;;4.20;;
13649;SDS011;6898;50.918;4.688;2022-08-21T01:32:20;8.25;;;4.13;;
13649;SDS011;6898;50.918;4.688;2022-08-21T01:34:49;8.25;;;4.18;;
13649;SDS011;6898;50.918;4.688;2022-08-21T01:37:18;8.18;;;4.13;;
13649;SDS011;6898;50.918;4.688;2022-08-21T01:39:48;10.10;;;4.22;;
13649;SDS011;6898;50.918;4.688;2022-08-21T01:42:16;8.38;;;4.22;;
13649;SDS011;6898;50.918;4.688;2022-08-21T01:44:45;8.20;;;4.00;;
13649;SDS011;6898;50.918;4.688;2022-08-21T01:47:14;8.20;;;4.30;;
13649;SDS011;6898;50.918;4.688;2022-08-21T01:49:43;6.97;;;4.00;;
13649;SDS011;6898;50.918;4.688;2022-08-21T01:52:11;8.60;;;4.32;;
13649;SDS011;6898;50.918;4.688;2022-08-21T01:54:40;7.00;;;3.80;;
13649;SDS011;6898;50.918;4.688;2022-08-21T01:57:10;7.72;;;4.00;;
13649;SDS011;6898;50.918;4.688;2022-08-21T01:59:39;6.10;;;3.85;;
13649;SDS011;6898;50.918;4.688;2022-08-21T02:02:08;8.23;;;3.72;;
13649;SDS011;6898;50.918;4.688;2022-08-21T02:04:36;6.85;;;3.75;;
13649;SDS011;6898;50.918;4.688;2022-08-21T02:07:05;6.63;;;3.63;;
13649;SDS011;6898;50.918;4.688;2022-08-21T02:09:33;8.73;;;4.10;;
13649;SDS011;6898;50.918;4.688;2022-08-21T02:12:02;7.63;;;3.90;;
13649;SDS011;6898;50.918;4.688;2022-08-21T02:14:31;6.75;;;3.78;;
13649;SDS011;6898;50.918;4.688;2022-08-21T02:17:00;7.85;;;3.65;;
13649;SDS011;6898;50.918;4.688;2022-08-21T02:19:28;9.47;;;3.87;;
13649;SDS011;6898;50.918;4.688;2022-08-21T02:21:57;7.57;;;3.70;;
13649;SDS011;6898;50.918;4.688;2022-08-21T02:24:25;6.72;;;3.92;;
13649;SDS011;6898;50.918;4.688;2022-08-21T02:26:54;6.78;;;3.95;;
13649;SDS011;6898;50.918;4.688;2022-08-21T02:29:22;7.22;;;3.45;;
13649;SDS011;6898;50.918;4.688;2022-08-21T02:31:52;6.00;;;3.60;;
13649;SDS011;6898;50.918;4.688;2022-08-21T02:34:20;9.75;;;4.10;;
13649;SDS011;6898;50.918;4.688;2022-08-21T02:36:49;7.67;;;3.50;;
13649;SDS011;6898;50.918;4.688;2022-08-21T02:39:17;7.35;;;3.83;;
13649;SDS011;6898;50.918;4.688;2022-08-21T02:41:45;8.03;;;3.90;;
13649;SDS011;6898;50.918;4.688;2022-08-21T02:44:14;7.85;;;4.10;;
13649;SDS011;6898;50.918;4.688;2022-08-21T02:46:42;8.30;;;3.60;;
13649;SDS011;6898;50.918;4.688;2022-08-21T02:49:12;7.78;;;3.60;;
13649;SDS011;6898;50.918;4.688;2022-08-21T02:51:40;6.95;;;3.92;;
13649;SDS011;6898;50.918;4.688;2022-08-21T02:54:09;7.47;;;3.80;;
13649;SDS011;6898;50.918;4.688;2022-08-21T02:56:37;6.45;;;3.47;;
13649;SDS011;6898;50.918;4.688;2022-08-21T02:59:06;7.63;;;3.72;;
13649;SDS011;6898;50.918;4.688;2022-08-21T03:01:34;8.32;;;4.05;;
13649;SDS011;6898;50.918;4.688;2022-08-21T03:04:03;8.43;;;4.00;;
13649;SDS011;6898;50.918;4.688;2022-08-21T03:06:33;8.75;;;3.95;;
13649;SDS011;6898;50.918;4.688;2022-08-21T03:09:02;9.45;;;3.97;;
13649;SDS011;6898;50.918;4.688;2022-08-21T03:11:30;7.22;;;3.70;;
13649;SDS011;6898;50.918;4.688;2022-08-21T03:13:58;8.35;;;3.90;;
13649;SDS011;6898;50.918;4.688;2022-08-21T03:16:27;9.10;;;3.90;;
13649;SDS011;6898;50.918;4.688;2022-08-21T03:18:58;7.93;;;4.10;;
13649;SDS011;6898;50.918;4.688;2022-08-21T03:21:26;8.63;;;4.22;;
13649;SDS011;6898;50.918;4.688;2022-08-21T03:23:56;7.88;;;4.20;;
13649;SDS011;6898;50.918;4.688;2022-08-21T03:26:25;9.05;;;3.90;;
13649;SDS011;6898;50.918;4.688;2022-08-21T03:28:53;6.75;;;3.70;;
13649;SDS011;6898;50.918;4.688;2022-08-21T03:31:22;7.80;;;3.90;;
13649;SDS011;6898;50.918;4.688;2022-08-21T03:33:54;9.88;;;4.00;;
13649;SDS011;6898;50.918;4.688;2022-08-21T03:36:23;6.05;;;3.65;;
13649;SDS011;6898;50.918;4.688;2022-08-21T03:38:52;7.82;;;3.90;;
13649;SDS011;6898;50.918;4.688;2022-08-21T03:41:22;8.32;;;3.78;;
13649;SDS011;6898;50.918;4.688;2022-08-21T03:43:50;8.60;;;3.72;;
13649;SDS011;6898;50.918;4.688;2022-08-21T03:46:19;7.95;;;3.75;;
13649;SDS011;6898;50.918;4.688;2022-08-21T03:48:48;8.40;;;3.80;;
13649;SDS011;6898;50.918;4.688;2022-08-21T03:51:16;7.18;;;3.40;;
13649;SDS011;6898;50.918;4.688;2022-08-21T03:53:44;9.15;;;4.03;;
13649;SDS011;6898;50.918;4.688;2022-08-21T03:56:13;6.70;;;3.50;;
13649;SDS011;6898;50.918;4.688;2022-08-21T03:58:43;8.07;;;3.60;;
13649;SDS011;6898;50.918;4.688;2022-08-21T04:01:12;7.53;;;3.57;;
13649;SDS011;6898;50.918;4.688;2022-08-21T04:03:40;7.47;;;3.53;;
13649;SDS011;6898;50.918;4.688;2022-08-21T04:06:08;7.60;;;3.43;;
13649;SDS011;6898;50.918;4.688;2022-08-21T04:08:37;6.63;;;3.40;;
13649;SDS011;6898;50.918;4.688;2022-08-21T04:11:09;8.25;;;3.30;;
13649;SDS011;6898;50.918;4.688;2022-08-21T04:13:37;8.47;;;3.60;;
13649;SDS011;6898;50.918;4.688;2022-08-21T04:16:08;6.60;;;3.50;;
13649;SDS011;6898;50.918;4.688;2022-08-21T04:18:36;6.72;;;3.38;;
13649;SDS011;6898;50.918;4.688;2022-08-21T04:21:05;7.33;;;3.63;;
13649;SDS011;6898;50.918;4.688;2022-08-21T04:23:34;7.55;;;3.47;;
13649;SDS011;6898;50.918;4.688;2022-08-21T04:26:02;8.57;;;3.75;;
13649;SDS011;6898;50.918;4.688;2022-08-21T04:28:32;7.18;;;3.72;;
13649;SDS011;6898;50.918;4.688;2022-08-21T04:31:01;7.25;;;3.45;;
13649;SDS011;6898;50.918;4.688;2022-08-21T04:33:30;8.88;;;3.58;;
13649;SDS011;6898;50.918;4.688;2022-08-21T04:35:59;9.10;;;3.73;;
13649;SDS011;6898;50.918;4.688;2022-08-21T04:38:28;6.57;;;3.53;;
13649;SDS011;6898;50.918;4.688;2022-08-21T04:40:57;7.47;;;3.90;;
13649;SDS011;6898;50.918;4.688;2022-08-21T04:43:26;8.38;;;3.70;;
13649;SDS011;6898;50.918;4.688;2022-08-21T04:45:54;6.85;;;3.70;;
13649;SDS011;6898;50.918;4.688;2022-08-21T04:48:23;5.55;;;3.35;;
13649;SDS011;6898;50.918;4.688;2022-08-21T04:50:54;7.85;;;3.65;;
13649;SDS011;6898;50.918;4.688;2022-08-21T04:53:24;6.25;;;3.47;;
13649;SDS011;6898;50.918;4.688;2022-08-21T04:55:53;7.57;;;3.67;;
13649;SDS011;6898;50.918;4.688;2022-08-21T04:58:22;7.07;;;3.60;;
13649;SDS011;6898;50.918;4.688;2022-08-21T05:00:54;8.07;;;3.50;;
13649;SDS011;6898;50.918;4.688;2022-08-21T05:03:22;7.10;;;3.53;;
13649;SDS011;6898;50.918;4.688;2022-08-21T05:05:52;7.40;;;3.67;;
13649;SDS011;6898;50.918;4.688;2022-08-21T05:08:21;7.53;;;3.50;;
13649;SDS011;6898;50.918;4.688;2022-08-21T05:10:51;7.35;;;3.55;;
13649;SDS011;6898;50.918;4.688;2022-08-21T05:13:22;7.32;;;3.50;;
13649;SDS011;6898;50.918;4.688;2022-08-21T05:15:50;9.23;;;3.53;;
13649;SDS011;6898;50.918;4.688;2022-08-21T05:18:19;8.43;;;3.50;;
13649;SDS011;6898;50.918;4.688;2022-08-21T05:20:48;9.75;;;3.35;;
13649;SDS011;6898;50.918;4.688;2022-08-21T05:23:18;6.00;;;3.30;;
13649;SDS011;6898;50.918;4.688;2022-08-21T05:25:46;8.60;;;3.20;;
13649;SDS011;6898;50.918;4.688;2022-08-21T05:28:15;9.23;;;3.30;;
13649;SDS011;6898;50.918;4.688;2022-08-21T05:30:44;6.53;;;3.25;;
13649;SDS011;6898;50.918;4.688;2022-08-21T05:33:14;7.70;;;3.30;;
13649;SDS011;6898;50.918;4.688;2022-08-21T05:35:42;9.18;;;3.50;;
13649;SDS011;6898;50.918;4.688;2022-08-21T05:38:11;10.02;;;3.30;;
13649;SDS011;6898;50.918;4.688;2022-08-21T05:40:41;7.35;;;3.08;;
13649;SDS011;6898;50.918;4.688;2022-08-21T05:43:09;7.63;;;3.25;;
13649;SDS011;6898;50.918;4.688;2022-08-21T05:45:37;8.32;;;3.20;;
13649;SDS011;6898;50.918;4.688;2022-08-21T05:48:06;8.18;;;3.53;;
13649;SDS011;6898;50.918;4.688;2022-08-21T05:50:35;7.30;;;3.10;;
13649;SDS011;6898;50.918;4.688;2022-08-21T05:53:04;7.10;;;3.10;;
13649;SDS011;6898;50.918;4.688;2022-08-21T05:55:33;7.40;;;3.10;;
13649;SDS011;6898;50.918;4.688;2022-08-21T05:58:06;8.00;;;3.35;;
13649;SDS011;6898;50.918;4.688;2022-08-21T06:00:35;6.07;;;3.00;;
13649;SDS011;6898;50.918;4.688;2022-08-21T06:03:03;8.20;;;3.30;;
13649;SDS011;6898;50.918;4.688;2022-08-21T06:05:32;6.38;;;3.20;;
13649;SDS011;6898;50.918;4.688;2022-08-21T06:08:00;9.32;;;3.25;;
13649;SDS011;6898;50.918;4.688;2022-08-21T06:10:29;6.23;;;3.03;;
13649;SDS011;6898;50.918;4.688;2022-08-21T06:16:07;7.43;;;3.13;;
13649;SDS011;6898;50.918;4.688;2022-08-21T06:18:36;7.80;;;3.17;;
13649;SDS011;6898;50.918;4.688;2022-08-21T06:21:05;6.97;;;3.10;;
13649;SDS011;6898;50.918;4.688;2022-08-21T06:23:34;9.25;;;3.33;;
13649;SDS011;6898;50.918;4.688;2022-08-21T06:26:09;8.43;;;3.20;;
13649;SDS011;6898;50.918;4.688;2022-08-21T06:28:44;7.18;;;3.15;;
13649;SDS011;6898;50.918;4.688;2022-08-21T06:31:14;8.50;;;3.28;;
13649;SDS011;6898;50.918;4.688;2022-08-21T06:33:43;9.05;;;3.05;;
13649;SDS011;6898;50.918;4.688;2022-08-21T06:36:12;9.63;;;3.25;;
13649;SDS011;6898;50.918;4.688;2022-08-21T06:38:42;7.75;;;2.70;;
13649;SDS011;6898;50.918;4.688;2022-08-21T06:41:32;7.22;;;2.78;;
13649;SDS011;6898;50.918;4.688;2022-08-21T06:44:01;7.78;;;2.75;;
13649;SDS011;6898;50.918;4.688;2022-08-21T06:46:31;6.57;;;2.55;;
13649;SDS011;6898;50.918;4.688;2022-08-21T06:49:00;7.47;;;2.72;;
13649;SDS011;6898;50.918;4.688;2022-08-21T06:51:28;7.10;;;3.60;;
13649;SDS011;6898;50.918;4.688;2022-08-21T06:53:59;10.77;;;5.60;;
13649;SDS011;6898;50.918;4.688;2022-08-21T06:56:27;7.10;;;2.80;;
13649;SDS011;6898;50.918;4.688;2022-08-21T06:58:56;6.13;;;2.63;;
13649;SDS011;6898;50.918;4.688;2022-08-21T07:01:25;6.80;;;2.67;;
13649;SDS011;6898;50.918;4.688;2022-08-21T07:03:55;9.18;;;2.70;;
13649;SDS011;6898;50.918;4.688;2022-08-21T07:06:24;7.50;;;2.60;;
13649;SDS011;6898;50.918;4.688;2022-08-21T07:08:52;9.27;;;4.30;;
13649;SDS011;6898;50.918;4.688;2022-08-21T07:11:21;7.32;;;2.72;;
13649;SDS011;6898;50.918;4.688;2022-08-21T07:13:50;6.72;;;2.63;;
13649;SDS011;6898;50.918;4.688;2022-08-21T07:16:20;7.82;;;3.15;;
13649;SDS011;6898;50.918;4.688;2022-08-21T07:18:49;6.37;;;2.57;;
13649;SDS011;6898;50.918;4.688;2022-08-21T07:24:15;7.77;;;2.70;;
13649;SDS011;6898;50.918;4.688;2022-08-21T07:26:43;6.73;;;2.40;;
13649;SDS011;6898;50.918;4.688;2022-08-21T07:29:12;7.60;;;2.53;;
13649;SDS011;6898;50.918;4.688;2022-08-21T07:31:41;7.40;;;2.50;;
13649;SDS011;6898;50.918;4.688;2022-08-21T07:34:09;6.88;;;2.30;;
13649;SDS011;6898;50.918;4.688;2022-08-21T07:36:38;6.80;;;2.35;;
13649;SDS011;6898;50.918;4.688;2022-08-21T07:39:06;8.32;;;2.53;;
13649;SDS011;6898;50.918;4.688;2022-08-21T07:41:36;8.52;;;2.30;;
13649;SDS011;6898;50.918;4.688;2022-08-21T07:44:05;8.63;;;2.70;;
13649;SDS011;6898;50.918;4.688;2022-08-21T07:46:33;7.28;;;2.40;;
13649;SDS011;6898;50.918;4.688;2022-08-21T07:49:02;7.32;;;2.97;;
13649;SDS011;6898;50.918;4.688;2022-08-21T07:51:31;8.10;;;2.40;;
13649;SDS011;6898;50.918;4.688;2022-08-21T07:54:03;9.30;;;2.53;;
13649;SDS011;6898;50.918;4.688;2022-08-21T07:56:32;7.18;;;2.17;;
13649;SDS011;6898;50.918;4.688;2022-08-21T07:59:02;5.43;;;2.27;;
13649;SDS011;6898;50.918;4.688;2022-08-21T08:01:30;7.33;;;2.20;;
13649;SDS011;6898;50.918;4.688;2022-08-21T08:03:59;6.10;;;2.13;;
13649;SDS011;6898;50.918;4.688;2022-08-21T08:06:27;6.57;;;2.15;;
13649;SDS011;6898;50.918;4.688;2022-08-21T08:08:56;6.20;;;2.17;;
13649;SDS011;6898;50.918;4.688;2022-08-21T08:11:25;7.40;;;2.50;;
13649;SDS011;6898;50.918;4.688;2022-08-21T08:13:53;7.82;;;2.17;;
13649;SDS011;6898;50.918;4.688;2022-08-21T08:16:25;7.32;;;2.67;;
13649;SDS011;6898;50.918;4.688;2022-08-21T08:18:53;4.97;;;2.13;;
13649;SDS011;6898;50.918;4.688;2022-08-21T08:21:22;7.03;;;2.30;;
13649;SDS011;6898;50.918;4.688;2022-08-21T08:23:51;6.28;;;2.15;;
13649;SDS011;6898;50.918;4.688;2022-08-21T08:26:19;9.02;;;2.40;;
13649;SDS011;6898;50.918;4.688;2022-08-21T08:28:48;7.07;;;2.40;;
13649;SDS011;6898;50.918;4.688;2022-08-21T08:31:16;6.72;;;2.13;;
13649;SDS011;6898;50.918;4.688;2022-08-21T08:33:46;6.57;;;2.40;;
13649;SDS011;6898;50.918;4.688;2022-08-21T08:36:15;6.37;;;2.33;;
13649;SDS011;6898;50.918;4.688;2022-08-21T08:38:45;7.33;;;2.53;;
13649;SDS011;6898;50.918;4.688;2022-08-21T08:41:15;5.75;;;2.20;;
13649;SDS011;6898;50.918;4.688;2022-08-21T08:43:51;7.30;;;2.53;;
13649;SDS011;6898;50.918;4.688;2022-08-21T08:46:24;8.20;;;2.58;;
13649;SDS011;6898;50.918;4.688;2022-08-21T08:48:56;9.47;;;2.63;;
13649;SDS011;6898;50.918;4.688;2022-08-21T08:51:30;8.13;;;2.58;;
13649;SDS011;6898;50.918;4.688;2022-08-21T08:54:05;7.53;;;2.42;;
13649;SDS011;6898;50.918;4.688;2022-08-21T08:56:35;7.45;;;2.47;;
13649;SDS011;6898;50.918;4.688;2022-08-21T08:59:07;8.32;;;2.50;;
13649;SDS011;6898;50.918;4.688;2022-08-21T09:01:36;10.05;;;2.70;;
13649;SDS011;6898;50.918;4.688;2022-08-21T09:04:06;8.02;;;2.50;;
13649;SDS011;6898;50.918;4.688;2022-08-21T09:06:37;9.55;;;2.70;;
13649;SDS011;6898;50.918;4.688;2022-08-21T09:09:12;7.90;;;2.47;;
13649;SDS011;6898;50.918;4.688;2022-08-21T09:11:45;7.40;;;2.35;;
13649;SDS011;6898;50.918;4.688;2022-08-21T09:14:26;8.23;;;2.45;;
13649;SDS011;6898;50.918;4.688;2022-08-21T09:17:01;8.85;;;2.50;;
13649;SDS011;6898;50.918;4.688;2022-08-21T09:19:43;8.43;;;2.47;;
13649;SDS011;6898;50.918;4.688;2022-08-21T09:22:16;6.97;;;2.58;;
13649;SDS011;6898;50.918;4.688;2022-08-21T09:24:49;7.57;;;2.50;;
13649;SDS011;6898;50.918;4.688;2022-08-21T09:27:21;7.00;;;2.35;;
13649;SDS011;6898;50.918;4.688;2022-08-21T09:29:52;9.13;;;3.20;;
13649;SDS011;6898;50.918;4.688;2022-08-21T09:32:22;7.30;;;2.47;;
13649;SDS011;6898;50.918;4.688;2022-08-21T09:34:56;8.77;;;3.70;;
13649;SDS011;6898;50.918;4.688;2022-08-21T09:37:25;10.38;;;2.72;;
13649;SDS011;6898;50.918;4.688;2022-08-21T09:39:55;6.88;;;2.55;;
13649;SDS011;6898;50.918;4.688;2022-08-21T09:42:25;8.07;;;2.70;;
13649;SDS011;6898;50.918;4.688;2022-08-21T09:45:05;7.27;;;2.90;;
13649;SDS011;6898;50.918;4.688;2022-08-21T09:47:34;8.60;;;2.70;;
13649;SDS011;6898;50.918;4.688;2022-08-21T09:50:08;8.30;;;2.57;;
13649;SDS011;6898;50.918;4.688;2022-08-21T09:52:42;8.35;;;2.47;;
13649;SDS011;6898;50.918;4.688;2022-08-21T09:55:14;6.43;;;2.40;;
13649;SDS011;6898;50.918;4.688;2022-08-21T09:58:03;7.65;;;2.35;;
13649;SDS011;6898;50.918;4.688;2022-08-21T10:00:32;8.63;;;2.65;;
13649;SDS011;6898;50.918;4.688;2022-08-21T10:03:08;7.65;;;2.70;;
13649;SDS011;6898;50.918;4.688;2022-08-21T10:05:49;9.17;;;2.67;;
13649;SDS011;6898;50.918;4.688;2022-08-21T10:08:18;8.63;;;2.80;;
13649;SDS011;6898;50.918;4.688;2022-08-21T10:10:49;8.30;;;2.63;;
13649;SDS011;6898;50.918;4.688;2022-08-21T10:13:21;8.32;;;2.50;;
13649;SDS011;6898;50.918;4.688;2022-08-21T10:15:51;6.35;;;2.30;;
13649;SDS011;6898;50.918;4.688;2022-08-21T10:18:26;8.00;;;2.60;;
13649;SDS011;6898;50.918;4.688;2022-08-21T10:20:59;9.23;;;2.55;;
13649;SDS011;6898;50.918;4.688;2022-08-21T10:23:34;8.73;;;2.60;;
13649;SDS011;6898;50.918;4.688;2022-08-21T10:26:05;7.93;;;2.45;;
13649;SDS011;6898;50.918;4.688;2022-08-21T10:28:37;7.93;;;2.65;;
13649;SDS011;6898;50.918;4.688;2022-08-21T10:31:12;8.80;;;2.67;;
13649;SDS011;6898;50.918;4.688;2022-08-21T10:33:42;7.18;;;2.78;;
13649;SDS011;6898;50.918;4.688;2022-08-21T10:36:15;9.70;;;2.78;;
13649;SDS011;6898;50.918;4.688;2022-08-21T10:38:54;7.82;;;2.50;;
13649;SDS011;6898;50.918;4.688;2022-08-21T10:41:41;7.30;;;2.60;;
13649;SDS011;6898;50.918;4.688;2022-08-21T10:44:17;9.85;;;2.78;;
13649;SDS011;6898;50.918;4.688;2022-08-21T10:46:51;8.30;;;2.58;;
13649;SDS011;6898;50.918;4.688;2022-08-21T10:49:23;7.45;;;2.60;;
13649;SDS011;6898;50.918;4.688;2022-08-21T10:51:56;5.72;;;2.33;;
13649;SDS011;6898;50.918;4.688;2022-08-21T10:54:32;7.87;;;2.67;;
13649;SDS011;6898;50.918;4.688;2022-08-21T10:57:06;8.25;;;2.63;;
13649;SDS011;6898;50.918;4.688;2022-08-21T10:59:40;8.18;;;2.83;;
13649;SDS011;6898;50.918;4.688;2022-08-21T11:02:11;8.95;;;2.67;;
13649;SDS011;6898;50.918;4.688;2022-08-21T11:04:43;7.82;;;2.72;;
13649;SDS011;6898;50.918;4.688;2022-08-21T11:07:16;6.60;;;2.50;;
13649;SDS011;6898;50.918;4.688;2022-08-21T11:09:47;9.15;;;2.72;;
13649;SDS011;6898;50.918;4.688;2022-08-21T11:12:19;8.15;;;2.97;;
13649;SDS011;6898;50.918;4.688;2022-08-21T11:14:49;8.45;;;2.65;;
13649;SDS011;6898;50.918;4.688;2022-08-21T11:17:24;8.32;;;2.63;;
13649;SDS011;6898;50.918;4.688;2022-08-21T11:19:58;9.15;;;2.75;;
13649;SDS011;6898;50.918;4.688;2022-08-21T11:22:35;8.82;;;2.70;;
13649;SDS011;6898;50.918;4.688;2022-08-21T11:25:07;8.30;;;2.83;;
13649;SDS011;6898;50.918;4.688;2022-08-21T11:27:38;7.95;;;2.55;;
13649;SDS011;6898;50.918;4.688;2022-08-21T11:30:09;8.98;;;2.58;;
13649;SDS011;6898;50.918;4.688;2022-08-21T11:32:45;10.20;;;2.90;;
13649;SDS011;6898;50.918;4.688;2022-08-21T11:35:21;8.00;;;2.70;;
13649;SDS011;6898;50.918;4.688;2022-08-21T11:37:59;8.27;;;2.50;;
13649;SDS011;6898;50.918;4.688;2022-08-21T11:40:34;9.15;;;2.80;;
13649;SDS011;6898;50.918;4.688;2022-08-21T11:43:07;9.25;;;2.85;;
13649;SDS011;6898;50.918;4.688;2022-08-21T11:45:39;6.60;;;2.40;;
13649;SDS011;6898;50.918;4.688;2022-08-21T11:48:10;8.45;;;2.80;;
13649;SDS011;6898;50.918;4.688;2022-08-21T11:50:41;10.02;;;2.58;;
13649;SDS011;6898;50.918;4.688;2022-08-21T11:53:12;7.68;;;2.85;;
13649;SDS011;6898;50.918;4.688;2022-08-21T11:55:43;8.13;;;2.75;;
13649;SDS011;6898;50.918;4.688;2022-08-21T11:58:15;8.48;;;2.70;;
13649;SDS011;6898;50.918;4.688;2022-08-21T12:00:45;8.73;;;2.83;;
13649;SDS011;6898;50.918;4.688;2022-08-21T12:03:15;8.40;;;2.80;;
13649;SDS011;6898;50.918;4.688;2022-08-21T12:05:46;9.90;;;2.87;;
13649;SDS011;6898;50.918;4.688;2022-08-21T12:08:27;8.32;;;2.70;;
13649;SDS011;6898;50.918;4.688;2022-08-21T12:11:01;8.05;;;2.80;;
13649;SDS011;6898;50.918;4.688;2022-08-21T12:13:30;9.07;;;2.72;;
13649;SDS011;6898;50.918;4.688;2022-08-21T12:16:05;7.82;;;2.70;;
13649;SDS011;6898;50.918;4.688;2022-08-21T12:18:34;9.18;;;2.78;;
13649;SDS011;6898;50.918;4.688;2022-08-21T12:21:15;8.77;;;2.50;;
13649;SDS011;6898;50.918;4.688;2022-08-21T12:23:47;8.00;;;2.70;;
13649;SDS011;6898;50.918;4.688;2022-08-21T12:26:23;8.52;;;2.88;;
13649;SDS011;6898;50.918;4.688;2022-08-21T12:29:03;7.65;;;2.63;;
13649;SDS011;6898;50.918;4.688;2022-08-21T12:31:31;9.60;;;2.80;;
13649;SDS011;6898;50.918;4.688;2022-08-21T12:34:01;8.05;;;2.90;;
13649;SDS011;6898;50.918;4.688;2022-08-21T12:36:35;8.00;;;2.80;;
13649;SDS011;6898;50.918;4.688;2022-08-21T12:39:12;9.87;;;2.80;;
13649;SDS011;6898;50.918;4.688;2022-08-21T12:41:45;9.40;;;2.70;;
13649;SDS011;6898;50.918;4.688;2022-08-21T12:44:16;9.80;;;2.85;;
13649;SDS011;6898;50.918;4.688;2022-08-21T12:46:50;6.60;;;2.38;;
13649;SDS011;6898;50.918;4.688;2022-08-21T12:49:21;6.70;;;2.58;;
13649;SDS011;6898;50.918;4.688;2022-08-21T12:51:55;9.15;;;2.88;;
13649;SDS011;6898;50.918;4.688;2022-08-21T12:54:27;9.18;;;2.67;;
13649;SDS011;6898;50.918;4.688;2022-08-21T12:56:56;6.68;;;2.42;;
13649;SDS011;6898;50.918;4.688;2022-08-21T12:59:25;6.43;;;2.20;;
13649;SDS011;6898;50.918;4.688;2022-08-21T13:01:54;7.47;;;2.45;;
13649;SDS011;6898;50.918;4.688;2022-08-21T13:04:25;6.55;;;2.42;;
13649;SDS011;6898;50.918;4.688;2022-08-21T13:06:55;7.88;;;2.45;;
13649;SDS011;6898;50.918;4.688;2022-08-21T13:09:29;7.75;;;2.45;;
13649;SDS011;6898;50.918;4.688;2022-08-21T13:11:58;6.65;;;2.47;;
13649;SDS011;6898;50.918;4.688;2022-08-21T13:14:29;7.68;;;2.35;;
13649;SDS011;6898;50.918;4.688;2022-08-21T13:16:58;6.85;;;2.53;;
13649;SDS011;6898;50.918;4.688;2022-08-21T13:19:27;7.90;;;2.30;;
13649;SDS011;6898;50.918;4.688;2022-08-21T13:21:58;8.65;;;2.67;;
13649;SDS011;6898;50.918;4.688;2022-08-21T13:24:29;8.52;;;2.50;;
13649;SDS011;6898;50.918;4.688;2022-08-21T13:27:25;7.18;;;2.45;;
13649;SDS011;6898;50.918;4.688;2022-08-21T13:30:00;6.03;;;2.47;;
13649;SDS011;6898;50.918;4.688;2022-08-21T13:32:29;6.15;;;2.50;;
13649;SDS011;6898;50.918;4.688;2022-08-21T13:34:59;6.90;;;2.40;;
13649;SDS011;6898;50.918;4.688;2022-08-21T13:37:35;9.23;;;2.72;;
13649;SDS011;6898;50.918;4.688;2022-08-21T13:40:09;7.47;;;2.45;;
13649;SDS011;6898;50.918;4.688;2022-08-21T13:42:38;6.25;;;2.53;;
13649;SDS011;6898;50.918;4.688;2022-08-21T13:45:11;7.20;;;2.53;;
13649;SDS011;6898;50.918;4.688;2022-08-21T13:47:40;9.43;;;2.60;;
13649;SDS011;6898;50.918;4.688;2022-08-21T13:50:09;7.10;;;2.60;;
13649;SDS011;6898;50.918;4.688;2022-08-21T13:52:46;8.25;;;2.67;;
13649;SDS011;6898;50.918;4.688;2022-08-21T13:55:17;6.53;;;2.42;;
13649;SDS011;6898;50.918;4.688;2022-08-21T13:57:46;7.88;;;2.55;;
13649;SDS011;6898;50.918;4.688;2022-08-21T14:00:16;8.18;;;2.60;;
13649;SDS011;6898;50.918;4.688;2022-08-21T14:02:46;6.57;;;2.50;;
13649;SDS011;6898;50.918;4.688;2022-08-21T14:05:16;8.43;;;2.65;;
13649;SDS011;6898;50.918;4.688;2022-08-21T14:07:45;9.43;;;2.55;;
13649;SDS011;6898;50.918;4.688;2022-08-21T14:10:15;7.05;;;2.72;;
13649;SDS011;6898;50.918;4.688;2022-08-21T14:12:48;6.32;;;2.33;;
13649;SDS011;6898;50.918;4.688;2022-08-21T14:15:17;9.52;;;2.65;;
13649;SDS011;6898;50.918;4.688;2022-08-21T14:17:46;9.38;;;2.90;;
13649;SDS011;6898;50.918;4.688;2022-08-21T14:20:25;7.13;;;2.47;;
13649;SDS011;6898;50.918;4.688;2022-08-21T14:22:53;7.30;;;2.50;;
13649;SDS011;6898;50.918;4.688;2022-08-21T14:25:29;7.32;;;2.70;;
13649;SDS011;6898;50.918;4.688;2022-08-21T14:28:03;7.72;;;2.50;;
13649;SDS011;6898;50.918;4.688;2022-08-21T14:30:37;7.20;;;2.58;;
13649;SDS011;6898;50.918;4.688;2022-08-21T14:33:09;6.18;;;2.53;;
13649;SDS011;6898;50.918;4.688;2022-08-21T14:35:37;7.18;;;2.53;;
13649;SDS011;6898;50.918;4.688;2022-08-21T14:38:11;10.25;;;2.80;;
13649;SDS011;6898;50.918;4.688;2022-08-21T14:40:39;6.90;;;2.33;;
13649;SDS011;6898;50.918;4.688;2022-08-21T14:43:10;5.75;;;2.20;;
13649;SDS011;6898;50.918;4.688;2022-08-21T14:45:38;6.10;;;2.30;;
13649;SDS011;6898;50.918;4.688;2022-08-21T14:48:07;8.40;;;2.53;;
13649;SDS011;6898;50.918;4.688;2022-08-21T14:50:35;7.18;;;2.53;;
13649;SDS011;6898;50.918;4.688;2022-08-21T14:53:04;7.63;;;2.50;;
13649;SDS011;6898;50.918;4.688;2022-08-21T14:55:33;7.60;;;2.25;;
13649;SDS011;6898;50.918;4.688;2022-08-21T14:58:23;8.68;;;2.60;;
13649;SDS011;6898;50.918;4.688;2022-08-21T15:00:54;6.82;;;2.50;;
13649;SDS011;6898;50.918;4.688;2022-08-21T15:03:24;6.40;;;2.30;;
13649;SDS011;6898;50.918;4.688;2022-08-21T15:05:53;6.18;;;2.38;;
13649;SDS011;6898;50.918;4.688;2022-08-21T15:08:21;6.07;;;2.35;;
13649;SDS011;6898;50.918;4.688;2022-08-21T15:10:50;8.48;;;2.50;;
13649;SDS011;6898;50.918;4.688;2022-08-21T15:13:37;7.88;;;2.53;;
13649;SDS011;6898;50.918;4.688;2022-08-21T15:16:05;6.07;;;2.30;;
13649;SDS011;6898;50.918;4.688;2022-08-21T15:18:36;7.22;;;2.47;;
13649;SDS011;6898;50.918;4.688;2022-08-21T15:21:04;6.15;;;2.30;;
13649;SDS011;6898;50.918;4.688;2022-08-21T15:23:33;7.95;;;2.40;;
13649;SDS011;6898;50.918;4.688;2022-08-21T15:26:01;6.95;;;2.55;;